sensor_id;sensor_type;location;lat;lon;timestamp;temperature;humidity
40323;DHT22;26030;51.164;17.100;2023-01-19T00:01:19;22.30;57.30
40323;DHT22;26030;51.164;17.100;2023-01-19T00:06:23;22.30;57.30
40323;DHT22;26030;51.164;17.100;2023-01-19T00:11:28;22.10;57.40
40323;DHT22;26030;51.164;17.100;2023-01-19T00:16:32;21.90;57.70
40323;DHT22;26030;51.164;17.100;2023-01-19T00:21:37;21.90;57.70
40323;DHT22;26030;51.164;17.100;2023-01-19T00:26:41;21.90;57.60
40323;DHT22;26030;51.164;17.100;2023-01-19T00:31:45;21.80;57.50
40323;DHT22;26030;51.164;17.100;2023-01-19T00:36:51;21.80;57.50
40323;DHT22;26030;51.164;17.100;2023-01-19T00:41:55;21.80;57.50
40323;DHT22;26030;51.164;17.100;2023-01-19T00:47:18;21.70;57.50
40323;DHT22;26030;51.164;17.100;2023-01-19T00:52:22;21.70;57.30
40323;DHT22;26030;51.164;17.100;2023-01-19T00:57:26;21.70;56.90
40323;DHT22;26030;51.164;17.100;2023-01-19T01:02:32;21.70;57.00
40323;DHT22;26030;51.164;17.100;2023-01-19T01:07:37;21.70;57.10
40323;DHT22;26030;51.164;17.100;2023-01-19T01:12:47;22.00;56.80
40323;DHT22;26030;51.164;17.100;2023-01-19T01:18:01;22.20;56.70
40323;DHT22;26030;51.164;17.100;2023-01-19T01:23:05;22.40;56.00
40323;DHT22;26030;51.164;17.100;2023-01-19T01:28:09;22.60;55.90
40323;DHT22;26030;51.164;17.100;2023-01-19T01:33:14;22.70;55.40
40323;DHT22;26030;51.164;17.100;2023-01-19T01:38:38;22.90;55.20
40323;DHT22;26030;51.164;17.100;2023-01-19T01:43:46;23.00;54.50
40323;DHT22;26030;51.164;17.100;2023-01-19T01:54:10;23.00;55.00
40323;DHT22;26030;51.164;17.100;2023-01-19T01:59:26;23.00;54.50
40323;DHT22;26030;51.164;17.100;2023-01-19T02:04:37;23.20;54.70
40323;DHT22;26030;51.164;17.100;2023-01-19T02:09:43;23.20;53.60
40323;DHT22;26030;51.164;17.100;2023-01-19T02:15:16;23.30;53.70
40323;DHT22;26030;51.164;17.100;2023-01-19T02:20:23;23.20;53.80
40323;DHT22;26030;51.164;17.100;2023-01-19T02:25:30;23.30;53.50
40323;DHT22;26030;51.164;17.100;2023-01-19T02:30:35;23.30;54.00
40323;DHT22;26030;51.164;17.100;2023-01-19T02:35:42;23.30;53.80
40323;DHT22;26030;51.164;17.100;2023-01-19T02:40:48;23.30;53.80
40323;DHT22;26030;51.164;17.100;2023-01-19T02:45:53;23.30;53.70
40323;DHT22;26030;51.164;17.100;2023-01-19T02:50:58;23.40;54.10
40323;DHT22;26030;51.164;17.100;2023-01-19T03:11:46;23.50;53.90
40323;DHT22;26030;51.164;17.100;2023-01-19T03:16:58;23.50;53.50
40323;DHT22;26030;51.164;17.100;2023-01-19T03:22:06;23.60;53.40
40323;DHT22;26030;51.164;17.100;2023-01-19T03:27:20;23.50;53.50
40323;DHT22;26030;51.164;17.100;2023-01-19T03:32:36;23.40;53.60
40323;DHT22;26030;51.164;17.100;2023-01-19T03:37:46;23.30;54.20
40323;DHT22;26030;51.164;17.100;2023-01-19T03:42:53;23.10;54.30
40323;DHT22;26030;51.164;17.100;2023-01-19T03:47:58;23.00;54.60
40323;DHT22;26030;51.164;17.100;2023-01-19T03:53:06;22.80;55.10
40323;DHT22;26030;51.164;17.100;2023-01-19T03:58:15;22.80;55.00
40323;DHT22;26030;51.164;17.100;2023-01-19T04:03:19;22.90;54.60
40323;DHT22;26030;51.164;17.100;2023-01-19T04:08:24;22.80;55.00
40323;DHT22;26030;51.164;17.100;2023-01-19T04:13:28;22.70;55.10
40323;DHT22;26030;51.164;17.100;2023-01-19T04:18:33;22.50;55.30
40323;DHT22;26030;51.164;17.100;2023-01-19T04:23:37;22.40;55.60
40323;DHT22;26030;51.164;17.100;2023-01-19T04:28:41;22.30;55.90
40323;DHT22;26030;51.164;17.100;2023-01-19T04:33:45;22.20;56.50
40323;DHT22;26030;51.164;17.100;2023-01-19T04:38:49;22.10;56.10
40323;DHT22;26030;51.164;17.100;2023-01-19T04:43:53;22.10;56.30
40323;DHT22;26030;51.164;17.100;2023-01-19T04:48:57;22.00;56.30
40323;DHT22;26030;51.164;17.100;2023-01-19T04:54:01;22.00;56.40
40323;DHT22;26030;51.164;17.100;2023-01-19T04:59:06;21.90;56.40
40323;DHT22;26030;51.164;17.100;2023-01-19T05:04:10;21.80;57.10
40323;DHT22;26030;51.164;17.100;2023-01-19T05:09:15;21.90;56.50
40323;DHT22;26030;51.164;17.100;2023-01-19T05:14:19;21.80;56.50
40323;DHT22;26030;51.164;17.100;2023-01-19T05:19:23;21.80;56.50
40323;DHT22;26030;51.164;17.100;2023-01-19T05:24:27;21.70;56.80
40323;DHT22;26030;51.164;17.100;2023-01-19T05:29:32;21.70;56.50
40323;DHT22;26030;51.164;17.100;2023-01-19T05:34:36;21.60;56.50
40323;DHT22;26030;51.164;17.100;2023-01-19T05:39:40;21.80;56.50
40323;DHT22;26030;51.164;17.100;2023-01-19T05:44:45;22.10;56.00
40323;DHT22;26030;51.164;17.100;2023-01-19T05:49:49;22.40;55.20
40323;DHT22;26030;51.164;17.100;2023-01-19T05:54:53;22.60;54.80
40323;DHT22;26030;51.164;17.100;2023-01-19T05:59:58;22.90;54.20
40323;DHT22;26030;51.164;17.100;2023-01-19T06:05:02;23.00;53.60
40323;DHT22;26030;51.164;17.100;2023-01-19T06:10:07;23.00;53.70
40323;DHT22;26030;51.164;17.100;2023-01-19T06:15:13;23.00;54.00
40323;DHT22;26030;51.164;17.100;2023-01-19T06:20:18;23.10;53.60
40323;DHT22;26030;51.164;17.100;2023-01-19T06:25:22;23.10;53.50
40323;DHT22;26030;51.164;17.100;2023-01-19T06:30:26;23.10;53.70
40323;DHT22;26030;51.164;17.100;2023-01-19T06:35:31;23.20;53.30
40323;DHT22;26030;51.164;17.100;2023-01-19T06:40:35;23.20;53.20
40323;DHT22;26030;51.164;17.100;2023-01-19T06:45:39;23.30;53.00
40323;DHT22;26030;51.164;17.100;2023-01-19T06:50:44;23.30;53.10
40323;DHT22;26030;51.164;17.100;2023-01-19T06:55:48;23.30;53.10
40323;DHT22;26030;51.164;17.100;2023-01-19T07:00:52;23.30;53.30
40323;DHT22;26030;51.164;17.100;2023-01-19T07:05:57;23.50;53.40
40323;DHT22;26030;51.164;17.100;2023-01-19T07:11:06;23.40;53.10
40323;DHT22;26030;51.164;17.100;2023-01-19T07:16:32;23.40;53.00
40323;DHT22;26030;51.164;17.100;2023-01-19T07:21:36;23.10;53.70
40323;DHT22;26030;51.164;17.100;2023-01-19T07:26:41;23.10;54.40
40323;DHT22;26030;51.164;17.100;2023-01-19T07:31:45;23.20;54.20
40323;DHT22;26030;51.164;17.100;2023-01-19T07:36:51;23.30;55.30
40323;DHT22;26030;51.164;17.100;2023-01-19T07:41:55;23.30;54.60
40323;DHT22;26030;51.164;17.100;2023-01-19T07:46:59;23.20;54.20
40323;DHT22;26030;51.164;17.100;2023-01-19T07:52:04;23.10;54.20
40323;DHT22;26030;51.164;17.100;2023-01-19T07:57:08;22.90;54.60
40323;DHT22;26030;51.164;17.100;2023-01-19T08:02:12;22.80;55.20
40323;DHT22;26030;51.164;17.100;2023-01-19T08:07:19;22.70;54.80
40323;DHT22;26030;51.164;17.100;2023-01-19T08:12:23;22.50;55.10
40323;DHT22;26030;51.164;17.100;2023-01-19T08:17:27;22.40;55.00
40323;DHT22;26030;51.164;17.100;2023-01-19T08:22:31;22.30;55.00
40323;DHT22;26030;51.164;17.100;2023-01-19T08:27:35;22.20;55.00
40323;DHT22;26030;51.164;17.100;2023-01-19T08:32:39;22.10;54.80
40323;DHT22;26030;51.164;17.100;2023-01-19T08:37:43;22.10;54.80
40323;DHT22;26030;51.164;17.100;2023-01-19T08:42:47;22.00;54.70
40323;DHT22;26030;51.164;17.100;2023-01-19T08:47:51;22.00;54.80
40323;DHT22;26030;51.164;17.100;2023-01-19T08:52:58;22.00;54.70
40323;DHT22;26030;51.164;17.100;2023-01-19T08:58:04;21.90;54.60
40323;DHT22;26030;51.164;17.100;2023-01-19T09:03:11;21.80;54.50
40323;DHT22;26030;51.164;17.100;2023-01-19T09:08:16;21.80;54.40
40323;DHT22;26030;51.164;17.100;2023-01-19T09:13:20;21.70;54.30
40323;DHT22;26030;51.164;17.100;2023-01-19T09:18:25;21.70;54.20
40323;DHT22;26030;51.164;17.100;2023-01-19T09:23:29;21.70;54.10
40323;DHT22;26030;51.164;17.100;2023-01-19T09:28:34;21.70;54.20
40323;DHT22;26030;51.164;17.100;2023-01-19T09:33:38;21.60;54.10
40323;DHT22;26030;51.164;17.100;2023-01-19T09:38:42;21.50;54.30
40323;DHT22;26030;51.164;17.100;2023-01-19T09:43:56;21.60;53.90
40323;DHT22;26030;51.164;17.100;2023-01-19T09:49:02;22.10;52.70
40323;DHT22;26030;51.164;17.100;2023-01-19T09:54:15;22.40;51.90
40323;DHT22;26030;51.164;17.100;2023-01-19T09:59:23;22.60;51.20
40323;DHT22;26030;51.164;17.100;2023-01-19T10:04:39;22.90;51.00
40323;DHT22;26030;51.164;17.100;2023-01-19T10:09:47;23.10;50.40
40323;DHT22;26030;51.164;17.100;2023-01-19T10:25:25;23.70;49.20
40323;DHT22;26030;51.164;17.100;2023-01-19T10:30:30;23.70;49.00
40323;DHT22;26030;51.164;17.100;2023-01-19T10:35:34;23.90;49.10
40323;DHT22;26030;51.164;17.100;2023-01-19T10:40:43;24.00;48.60
40323;DHT22;26030;51.164;17.100;2023-01-19T10:45:53;24.00;49.00
40323;DHT22;26030;51.164;17.100;2023-01-19T10:51:01;23.90;48.70
40323;DHT22;26030;51.164;17.100;2023-01-19T10:56:19;23.80;49.20
40323;DHT22;26030;51.164;17.100;2023-01-19T11:01:26;23.70;49.00
40323;DHT22;26030;51.164;17.100;2023-01-19T11:06:33;23.60;49.10
40323;DHT22;26030;51.164;17.100;2023-01-19T11:11:45;23.60;49.20
40323;DHT22;26030;51.164;17.100;2023-01-19T11:16:52;23.60;49.30
40323;DHT22;26030;51.164;17.100;2023-01-19T11:22:08;23.50;49.20
40323;DHT22;26030;51.164;17.100;2023-01-19T11:27:19;23.50;49.20
40323;DHT22;26030;51.164;17.100;2023-01-19T11:32:25;23.50;49.10
40323;DHT22;26030;51.164;17.100;2023-01-19T11:37:30;23.40;49.10
40323;DHT22;26030;51.164;17.100;2023-01-19T11:42:37;23.40;49.30
40323;DHT22;26030;51.164;17.100;2023-01-19T11:47:45;23.40;49.50
40323;DHT22;26030;51.164;17.100;2023-01-19T11:53:13;23.30;49.50
40323;DHT22;26030;51.164;17.100;2023-01-19T11:58:20;23.30;49.50
40323;DHT22;26030;51.164;17.100;2023-01-19T12:03:29;23.30;49.50
40323;DHT22;26030;51.164;17.100;2023-01-19T12:08:39;23.30;49.40
40323;DHT22;26030;51.164;17.100;2023-01-19T12:13:46;23.30;49.30
40323;DHT22;26030;51.164;17.100;2023-01-19T12:19:05;23.20;49.20
40323;DHT22;26030;51.164;17.100;2023-01-19T12:24:29;23.20;49.20
40323;DHT22;26030;51.164;17.100;2023-01-19T12:29:40;23.20;49.60
40323;DHT22;26030;51.164;17.100;2023-01-19T12:34:48;23.20;49.50
40323;DHT22;26030;51.164;17.100;2023-01-19T12:40:31;23.00;49.70
40323;DHT22;26030;51.164;17.100;2023-01-19T12:45:34;23.00;49.60
40323;DHT22;26030;51.164;17.100;2023-01-19T12:50:42;23.00;49.70
40323;DHT22;26030;51.164;17.100;2023-01-19T12:55:58;22.90;49.60
40323;DHT22;26030;51.164;17.100;2023-01-19T13:01:14;22.90;50.10
40323;DHT22;26030;51.164;17.100;2023-01-19T13:06:35;22.90;49.70
40323;DHT22;26030;51.164;17.100;2023-01-19T13:17:52;23.00;49.20
40323;DHT22;26030;51.164;17.100;2023-01-19T13:28:08;22.90;49.30
40323;DHT22;26030;51.164;17.100;2023-01-19T13:33:18;22.80;49.50
40323;DHT22;26030;51.164;17.100;2023-01-19T13:38:25;22.90;49.10
40323;DHT22;26030;51.164;17.100;2023-01-19T13:43:31;22.90;49.00
40323;DHT22;26030;51.164;17.100;2023-01-19T13:48:40;22.90;49.00
40323;DHT22;26030;51.164;17.100;2023-01-19T13:53:57;22.80;48.90
40323;DHT22;26030;51.164;17.100;2023-01-19T13:59:05;22.70;49.00
40323;DHT22;26030;51.164;17.100;2023-01-19T14:04:30;22.60;49.00
40323;DHT22;26030;51.164;17.100;2023-01-19T14:09:36;22.50;49.10
40323;DHT22;26030;51.164;17.100;2023-01-19T14:14:41;22.40;49.30
40323;DHT22;26030;51.164;17.100;2023-01-19T14:19:46;22.50;49.70
40323;DHT22;26030;51.164;17.100;2023-01-19T14:24:55;22.30;51.50
40323;DHT22;26030;51.164;17.100;2023-01-19T14:30:31;22.20;51.50
40323;DHT22;26030;51.164;17.100;2023-01-19T14:35:38;22.20;51.50
40323;DHT22;26030;51.164;17.100;2023-01-19T14:40:43;22.10;51.50
40323;DHT22;26030;51.164;17.100;2023-01-19T14:45:47;22.00;51.60
40323;DHT22;26030;51.164;17.100;2023-01-19T14:50:52;21.90;51.70
40323;DHT22;26030;51.164;17.100;2023-01-19T14:56:06;22.00;51.60
40323;DHT22;26030;51.164;17.100;2023-01-19T15:01:10;22.10;51.80
40323;DHT22;26030;51.164;17.100;2023-01-19T15:06:15;22.20;51.60
40323;DHT22;26030;51.164;17.100;2023-01-19T15:11:22;22.00;51.70
40323;DHT22;26030;51.164;17.100;2023-01-19T15:16:32;21.80;51.80
40323;DHT22;26030;51.164;17.100;2023-01-19T15:21:37;21.80;51.70
40323;DHT22;26030;51.164;17.100;2023-01-19T15:26:44;21.80;51.60
40323;DHT22;26030;51.164;17.100;2023-01-19T15:31:49;21.70;51.60
40323;DHT22;26030;51.164;17.100;2023-01-19T15:36:54;21.60;51.40
40323;DHT22;26030;51.164;17.100;2023-01-19T15:41:59;21.60;51.30
40323;DHT22;26030;51.164;17.100;2023-01-19T15:47:03;21.60;51.20
40323;DHT22;26030;51.164;17.100;2023-01-19T15:52:07;21.90;50.70
40323;DHT22;26030;51.164;17.100;2023-01-19T15:57:12;22.30;49.10
40323;DHT22;26030;51.164;17.100;2023-01-19T16:02:16;22.60;48.10
40323;DHT22;26030;51.164;17.100;2023-01-19T16:07:21;22.80;47.90
40323;DHT22;26030;51.164;17.100;2023-01-19T16:12:25;22.80;47.80
40323;DHT22;26030;51.164;17.100;2023-01-19T16:17:30;22.80;47.70
40323;DHT22;26030;51.164;17.100;2023-01-19T16:22:35;22.90;48.30
40323;DHT22;26030;51.164;17.100;2023-01-19T16:27:41;23.10;48.20
40323;DHT22;26030;51.164;17.100;2023-01-19T16:32:46;23.20;48.20
40323;DHT22;26030;51.164;17.100;2023-01-19T16:37:50;23.30;47.80
40323;DHT22;26030;51.164;17.100;2023-01-19T16:42:54;23.50;47.30
40323;DHT22;26030;51.164;17.100;2023-01-19T16:47:58;23.60;46.60
40323;DHT22;26030;51.164;17.100;2023-01-19T16:53:02;23.70;45.90
40323;DHT22;26030;51.164;17.100;2023-01-19T16:58:07;23.60;45.90
40323;DHT22;26030;51.164;17.100;2023-01-19T17:03:11;23.40;46.10
40323;DHT22;26030;51.164;17.100;2023-01-19T17:08:20;23.50;46.50
40323;DHT22;26030;51.164;17.100;2023-01-19T17:13:25;23.50;46.60
40323;DHT22;26030;51.164;17.100;2023-01-19T17:18:34;23.60;46.20
40323;DHT22;26030;51.164;17.100;2023-01-19T17:23:42;23.70;46.20
40323;DHT22;26030;51.164;17.100;2023-01-19T17:28:50;23.50;47.00
40323;DHT22;26030;51.164;17.100;2023-01-19T17:33:56;23.50;47.50
40323;DHT22;26030;51.164;17.100;2023-01-19T17:39:04;23.50;47.00
40323;DHT22;26030;51.164;17.100;2023-01-19T17:50:59;23.10;47.10
40323;DHT22;26030;51.164;17.100;2023-01-19T17:56:14;23.20;47.00
40323;DHT22;26030;51.164;17.100;2023-01-19T18:01:23;23.10;47.70
40323;DHT22;26030;51.164;17.100;2023-01-19T18:06:32;22.90;47.40
40323;DHT22;26030;51.164;17.100;2023-01-19T18:11:47;22.80;47.80
40323;DHT22;26030;51.164;17.100;2023-01-19T18:16:53;22.60;47.80
40323;DHT22;26030;51.164;17.100;2023-01-19T18:21:59;22.40;47.90
40323;DHT22;26030;51.164;17.100;2023-01-19T18:27:05;22.30;48.30
40323;DHT22;26030;51.164;17.100;2023-01-19T18:32:10;22.20;48.50
40323;DHT22;26030;51.164;17.100;2023-01-19T18:37:18;22.00;49.00
40323;DHT22;26030;51.164;17.100;2023-01-19T18:42:28;21.90;49.40
40323;DHT22;26030;51.164;17.100;2023-01-19T18:47:33;21.90;49.80
40323;DHT22;26030;51.164;17.100;2023-01-19T18:52:48;21.80;49.60
40323;DHT22;26030;51.164;17.100;2023-01-19T18:57:55;21.80;50.00
40323;DHT22;26030;51.164;17.100;2023-01-19T19:03:05;21.70;50.40
40323;DHT22;26030;51.164;17.100;2023-01-19T19:08:15;21.60;50.30
40323;DHT22;26030;51.164;17.100;2023-01-19T19:13:22;21.60;50.40
40323;DHT22;26030;51.164;17.100;2023-01-19T19:18:30;21.60;50.50
40323;DHT22;26030;51.164;17.100;2023-01-19T19:23:37;22.00;50.30
40323;DHT22;26030;51.164;17.100;2023-01-19T19:28:43;22.30;49.40
40323;DHT22;26030;51.164;17.100;2023-01-19T19:33:51;22.60;48.90
40323;DHT22;26030;51.164;17.100;2023-01-19T19:39:00;22.90;48.70
40323;DHT22;26030;51.164;17.100;2023-01-19T19:44:17;23.00;49.00
40323;DHT22;26030;51.164;17.100;2023-01-19T19:49:26;23.10;49.00
40323;DHT22;26030;51.164;17.100;2023-01-19T19:54:31;23.10;48.80
40323;DHT22;26030;51.164;17.100;2023-01-19T19:59:39;23.10;48.60
40323;DHT22;26030;51.164;17.100;2023-01-19T20:04:45;23.10;48.40
40323;DHT22;26030;51.164;17.100;2023-01-19T20:09:55;23.10;49.20
40323;DHT22;26030;51.164;17.100;2023-01-19T20:15:00;23.30;49.70
40323;DHT22;26030;51.164;17.100;2023-01-19T20:20:06;23.40;52.80
40323;DHT22;26030;51.164;17.100;2023-01-19T20:25:16;23.40;52.60
40323;DHT22;26030;51.164;17.100;2023-01-19T20:30:23;23.30;51.10
40323;DHT22;26030;51.164;17.100;2023-01-19T20:35:30;23.50;50.60
40323;DHT22;26030;51.164;17.100;2023-01-19T20:40:36;23.50;51.80
40323;DHT22;26030;51.164;17.100;2023-01-19T20:45:42;23.20;51.10
40323;DHT22;26030;51.164;17.100;2023-01-19T20:50:48;23.00;52.00
40323;DHT22;26030;51.164;17.100;2023-01-19T20:55:56;22.90;51.80
40323;DHT22;26030;51.164;17.100;2023-01-19T21:01:09;22.80;51.90
40323;DHT22;26030;51.164;17.100;2023-01-19T21:06:19;22.60;52.40
40323;DHT22;26030;51.164;17.100;2023-01-19T21:11:26;22.50;52.90
40323;DHT22;26030;51.164;17.100;2023-01-19T21:16:33;22.50;52.60
40323;DHT22;26030;51.164;17.100;2023-01-19T21:21:41;22.40;53.20
40323;DHT22;26030;51.164;17.100;2023-01-19T21:26:47;22.30;53.10
40323;DHT22;26030;51.164;17.100;2023-01-19T21:31:52;22.20;53.50
40323;DHT22;26030;51.164;17.100;2023-01-19T21:36:56;22.10;53.30
40323;DHT22;26030;51.164;17.100;2023-01-19T21:42:01;22.10;54.20
40323;DHT22;26030;51.164;17.100;2023-01-19T21:47:06;22.00;55.60
40323;DHT22;26030;51.164;17.100;2023-01-19T21:52:12;22.00;55.90
40323;DHT22;26030;51.164;17.100;2023-01-19T21:57:16;21.90;55.80
40323;DHT22;26030;51.164;17.100;2023-01-19T22:02:22;21.70;55.70
40323;DHT22;26030;51.164;17.100;2023-01-19T22:07:40;21.70;55.60
40323;DHT22;26030;51.164;17.100;2023-01-19T22:12:44;21.60;55.50
40323;DHT22;26030;51.164;17.100;2023-01-19T22:17:54;21.60;55.50
40323;DHT22;26030;51.164;17.100;2023-01-19T22:22:58;21.50;55.80
40323;DHT22;26030;51.164;17.100;2023-01-19T22:28:02;21.50;55.80
40323;DHT22;26030;51.164;17.100;2023-01-19T22:33:06;21.40;55.40
40323;DHT22;26030;51.164;17.100;2023-01-19T22:38:11;21.40;55.40
40323;DHT22;26030;51.164;17.100;2023-01-19T22:43:15;21.70;54.70
40323;DHT22;26030;51.164;17.100;2023-01-19T22:48:19;21.90;54.30
40323;DHT22;26030;51.164;17.100;2023-01-19T22:53:25;22.10;54.50
40323;DHT22;26030;51.164;17.100;2023-01-19T22:58:29;22.50;53.00
40323;DHT22;26030;51.164;17.100;2023-01-19T23:03:33;22.70;52.60
40323;DHT22;26030;51.164;17.100;2023-01-19T23:08:38;22.90;52.20
40323;DHT22;26030;51.164;17.100;2023-01-19T23:13:43;22.80;51.80
40323;DHT22;26030;51.164;17.100;2023-01-19T23:18:50;22.80;52.90
40323;DHT22;26030;51.164;17.100;2023-01-19T23:23:56;22.70;52.70
40323;DHT22;26030;51.164;17.100;2023-01-19T23:29:05;22.70;53.30
40323;DHT22;26030;51.164;17.100;2023-01-19T23:34:11;22.80;54.50
40323;DHT22;26030;51.164;17.100;2023-01-19T23:39:17;22.90;54.50
40323;DHT22;26030;51.164;17.100;2023-01-19T23:44:23;23.00;54.60
40323;DHT22;26030;51.164;17.100;2023-01-19T23:49:28;23.10;54.60
40323;DHT22;26030;51.164;17.100;2023-01-19T23:54:32;23.10;54.20
40323;DHT22;26030;51.164;17.100;2023-01-19T23:59:36;23.10;54.20
